createdAt,value
2022-08-18T00:02:39.554Z,59.38
2022-08-18T00:07:47.541Z,59.44
2022-08-18T00:12:50.514Z,59.84
2022-08-18T00:17:53.559Z,59.78
2022-08-18T00:22:57.843Z,59.88
2022-08-18T00:28:00.683Z,59.98
2022-08-18T00:33:03.742Z,60.42
2022-08-18T00:38:09.448Z,60.48
2022-08-18T00:43:32.710Z,60.81
2022-08-18T00:48:35.609Z,61.19
2022-08-18T00:53:45.613Z,61.42
2022-08-18T00:58:52.274Z,61.18
2022-08-18T01:04:00.331Z,61.51
2022-08-18T01:09:04.784Z,61.60
2022-08-18T01:14:11.353Z,61.89
2022-08-18T01:19:32.125Z,61.84
2022-08-18T01:24:54.857Z,62.09
2022-08-18T01:29:58.989Z,62.23
2022-08-18T01:35:01.823Z,62.17
2022-08-18T01:41:22.245Z,61.96
2022-08-18T01:45:33.629Z,61.96
2022-08-18T01:50:39.802Z,62.02
2022-08-18T01:55:45.473Z,61.99
2022-08-18T02:00:48.190Z,62.21
2022-08-18T02:05:53.269Z,61.96
2022-08-18T02:10:58.724Z,62.38
2022-08-18T02:16:02.095Z,62.89
2022-08-18T02:21:10.390Z,62.84
2022-08-18T02:26:17.230Z,63.43
2022-08-18T02:31:24.266Z,63.52
2022-08-18T02:36:27.110Z,63.52
2022-08-18T02:41:31.247Z,63.47
2022-08-18T02:46:34.003Z,63.26
2022-08-18T02:51:36.772Z,62.88
2022-08-18T02:56:42.586Z,62.71
2022-08-18T03:01:47.045Z,62.56
2022-08-18T03:06:49.834Z,62.64
2022-08-18T03:11:54.607Z,62.79
2022-08-18T03:16:58.194Z,62.60
2022-08-18T03:22:02.878Z,62.87
2022-08-18T03:27:08.533Z,63.02
2022-08-18T03:32:11.301Z,63.04
2022-08-18T03:37:15.864Z,63.00
2022-08-18T03:42:19.983Z,63.55
2022-08-18T03:47:22.670Z,63.83
2022-08-18T03:52:25.339Z,63.80
2022-08-18T03:57:33.165Z,64.03
2022-08-18T04:02:41.843Z,64.07
2022-08-18T04:07:44.536Z,64.21
2022-08-18T04:12:48.822Z,64.41
2022-08-18T04:18:03.055Z,64.73
2022-08-18T04:23:06.862Z,64.86
2022-08-18T04:28:11.091Z,65.08
2022-08-18T04:33:13.981Z,64.91
2022-08-18T04:38:16.693Z,65.00
2022-08-18T04:43:20.913Z,65.04
2022-08-18T04:48:23.681Z,65.41
2022-08-18T04:53:43.918Z,65.47
2022-08-18T04:58:52.205Z,65.13
2022-08-18T05:03:55.954Z,65.43
2022-08-18T05:09:00.289Z,64.93
2022-08-18T05:14:06.616Z,65.14
2022-08-18T05:19:11.808Z,65.05
2022-08-18T05:24:14.566Z,64.81
2022-08-18T05:29:19.567Z,64.74
2022-08-18T05:34:23.912Z,65.39
2022-08-18T05:39:31.230Z,65.30
2022-08-18T05:44:37.006Z,64.91
2022-08-18T05:49:40.158Z,64.64
2022-08-18T05:55:04.434Z,64.04
2022-08-18T06:00:11.052Z,63.52
2022-08-18T06:05:25.386Z,63.39
2022-08-18T06:10:28.639Z,63.52
2022-08-18T06:15:39.484Z,63.51
2022-08-18T06:20:52.618Z,63.36
2022-08-18T06:26:05.338Z,62.94
2022-08-18T06:31:15.545Z,62.55
2022-08-18T06:36:24.006Z,62.24
2022-08-18T06:41:42.215Z,61.97
2022-08-18T06:46:53.849Z,61.67
2022-08-18T06:51:57.152Z,61.62
2022-08-18T06:56:59.955Z,61.28
2022-08-18T07:02:18.700Z,60.52
2022-08-18T07:07:39.509Z,60.21
2022-08-18T07:12:53.528Z,59.61
2022-08-18T07:18:04.969Z,59.43
2022-08-18T07:23:08.559Z,59.03
2022-08-18T07:28:28.682Z,58.50
2022-08-18T07:33:33.068Z,58.84
2022-08-18T07:38:43.282Z,58.42
2022-08-18T07:43:57.250Z,58.20
2022-08-18T07:49:01.878Z,57.90
2022-08-18T07:54:31.204Z,57.19
2022-08-18T07:59:38.866Z,56.97
2022-08-18T08:04:49.874Z,56.90
2022-08-18T08:09:57.932Z,57.20
2022-08-18T08:15:07.249Z,57.15
2022-08-18T08:20:17.955Z,57.07
2022-08-18T08:30:54.531Z,56.82
2022-08-18T08:36:04.692Z,56.40
2022-08-18T08:41:11.892Z,56.14
2022-08-18T08:46:17.841Z,56.25
2022-08-18T08:51:36.027Z,55.96
2022-08-18T08:56:44.368Z,55.86
2022-08-18T09:01:57.202Z,55.68
2022-08-18T09:07:14.222Z,55.65
2022-08-18T09:12:28.378Z,56.35
2022-08-18T09:17:50.886Z,56.32
2022-08-18T09:22:57.636Z,56.44
2022-08-18T09:28:12.301Z,55.89
2022-08-18T09:33:35.116Z,55.02
2022-08-18T09:39:06.853Z,55.23
2022-08-18T09:49:47.789Z,55.34
2022-08-18T09:50:37.283Z,54.89
2022-08-18T09:55:00.987Z,55.02
2022-08-18T10:00:29.202Z,54.20
2022-08-18T10:05:33.278Z,54.36
2022-08-18T10:16:15.069Z,54.04
2022-08-18T10:21:24.414Z,54.59
2022-08-18T10:27:09.004Z,55.28
2022-08-18T10:32:38.010Z,56.19
2022-08-18T10:37:44.228Z,56.86
2022-08-18T10:42:53.450Z,56.56
2022-08-18T10:48:17.357Z,56.87
2022-08-18T10:53:40.173Z,56.48
2022-08-18T10:59:05.390Z,56.52
2022-08-18T11:04:21.428Z,56.33
2022-08-18T11:09:36.915Z,56.57
2022-08-18T11:20:35.062Z,55.89
2022-08-18T11:25:39.864Z,55.69
2022-08-18T11:30:45.418Z,55.99
2022-08-18T11:35:52.397Z,56.05
2022-08-18T11:46:38.777Z,57.02
2022-08-18T11:51:55.609Z,57.07
2022-08-18T11:57:29.630Z,57.34
2022-08-18T12:02:32.468Z,57.41
2022-08-18T12:07:37.385Z,56.93
2022-08-18T12:12:46.425Z,57.48
2022-08-18T12:17:53.890Z,57.30
2022-08-18T12:22:58.296Z,57.59
2022-08-18T12:28:01.126Z,58.34
2022-08-18T12:33:08.143Z,58.53
2022-08-18T12:38:17.805Z,58.74
2022-08-18T12:43:21.344Z,59.20
2022-08-18T12:48:28.300Z,59.28
2022-08-18T12:53:58.160Z,59.43
2022-08-18T12:58:55.474Z,59.31
2022-08-18T13:04:12.534Z,60.02
2022-08-18T13:09:35.285Z,60.12
2022-08-18T13:14:41.184Z,60.02
2022-08-18T13:19:46.363Z,60.11
2022-08-18T13:24:50.783Z,59.54
2022-08-18T13:29:56.155Z,59.84
2022-08-18T13:34:59.511Z,59.70
2022-08-18T13:40:07.944Z,60.20
2022-08-18T13:45:23.309Z,59.97
2022-08-18T13:50:29.912Z,60.31
2022-08-18T13:55:34.340Z,60.80
2022-08-18T14:00:38.003Z,61.33
2022-08-18T14:05:51.258Z,61.47
2022-08-18T14:11:01.665Z,61.60
2022-08-18T14:16:05.097Z,61.67
2022-08-18T14:21:25.583Z,61.65
2022-08-18T14:26:50.546Z,61.63
2022-08-18T14:31:53.558Z,61.71
2022-08-18T14:36:57.638Z,61.64
2022-08-18T14:42:03.032Z,61.76
2022-08-18T14:47:06.379Z,61.57
2022-08-18T14:52:10.555Z,61.16
2022-08-18T14:57:18.618Z,60.95
2022-08-18T15:02:28.642Z,60.38
2022-08-18T15:07:32.825Z,59.45
2022-08-18T15:12:37.297Z,56.45
2022-08-18T15:17:41.343Z,55.99
2022-08-18T15:23:03.082Z,57.89
2022-08-18T15:28:08.352Z,59.07
2022-08-18T15:33:23.624Z,59.67
2022-08-18T15:38:27.626Z,60.20
2022-08-18T15:43:33.846Z,60.15
2022-08-18T15:48:36.655Z,60.30
2022-08-18T15:53:44.465Z,59.82
2022-08-18T15:58:49.372Z,60.05
2022-08-18T16:03:53.384Z,60.13
2022-08-18T16:08:56.329Z,60.29
2022-08-18T16:14:01.004Z,60.10
2022-08-18T16:19:05.132Z,60.45
2022-08-18T16:24:09.006Z,60.64
2022-08-18T16:29:13.056Z,60.55
2022-08-18T16:34:15.759Z,61.00
2022-08-18T16:39:18.563Z,60.91
2022-08-18T16:44:24.878Z,61.10
2022-08-18T16:49:27.754Z,61.31
2022-08-18T16:54:31.065Z,61.27
2022-08-18T17:00:04.227Z,61.26
2022-08-18T17:05:07.537Z,61.39
2022-08-18T17:10:10.487Z,61.52
2022-08-18T17:15:15.405Z,61.64
2022-08-18T17:20:19.215Z,61.82
2022-08-18T17:25:25.760Z,61.71
2022-08-18T17:30:36.803Z,62.12
2022-08-18T17:35:42.260Z,62.13
2022-08-18T17:40:47.949Z,62.55
2022-08-18T17:45:56.202Z,62.27
2022-08-18T17:51:21.044Z,62.51
2022-08-18T17:56:35.671Z,62.78
2022-08-18T18:01:42.608Z,63.44
2022-08-18T18:06:48.217Z,63.58
2022-08-18T18:11:52.430Z,63.90
2022-08-18T18:17:12.768Z,64.79
2022-08-18T18:22:20.839Z,65.43
2022-08-18T18:27:27.776Z,65.84
2022-08-18T18:32:35.241Z,65.89
2022-08-18T18:37:45.199Z,66.49
2022-08-18T18:42:50.582Z,66.60
2022-08-18T18:48:01.610Z,66.78
2022-08-18T18:53:14.110Z,66.59
2022-08-18T18:58:24.398Z,66.67
2022-08-18T19:03:34.635Z,66.60
2022-08-18T19:08:46.118Z,66.63
2022-08-18T19:13:55.117Z,67.07
2022-08-18T19:19:36.127Z,67.15
2022-08-18T19:24:26.282Z,67.28
2022-08-18T19:29:31.959Z,67.56
2022-08-18T19:34:42.445Z,67.67
2022-08-18T19:40:00.814Z,67.89
2022-08-18T19:45:16.625Z,68.08
2022-08-18T19:50:29.698Z,68.49
2022-08-18T19:55:41.551Z,68.75
2022-08-18T20:00:48.668Z,68.79
2022-08-18T20:06:14.161Z,68.91
2022-08-18T20:11:44.601Z,70.21
2022-08-18T20:17:14.470Z,71.39
2022-08-18T20:22:32.630Z,71.92
2022-08-18T20:27:38.937Z,72.76
2022-08-18T20:32:41.750Z,73.31
2022-08-18T20:37:46.116Z,73.54
2022-08-18T20:42:55.928Z,73.93
2022-08-18T20:48:23.766Z,74.65
2022-08-18T20:53:40.225Z,75.27
2022-08-18T20:58:51.405Z,75.25
2022-08-18T21:03:54.252Z,75.15
2022-08-18T21:09:04.031Z,74.90
2022-08-18T21:14:07.859Z,75.56
2022-08-18T21:19:17.984Z,75.77
2022-08-18T21:24:28.913Z,76.60
2022-08-18T21:29:44.222Z,76.28
2022-08-18T21:34:52.345Z,76.11
2022-08-18T21:39:59.346Z,76.56
2022-08-18T21:45:02.507Z,76.91
2022-08-18T21:50:11.379Z,77.38
2022-08-18T21:55:30.157Z,77.68
2022-08-18T22:00:34.905Z,78.31
2022-08-18T22:05:58.710Z,78.38
2022-08-18T22:12:00.887Z,77.96
2022-08-18T22:17:32.810Z,77.75
2022-08-18T22:22:53.438Z,77.89
2022-08-18T22:28:00.389Z,77.91
2022-08-18T22:33:03.156Z,78.11
2022-08-18T22:38:05.935Z,78.53
2022-08-18T22:43:10.382Z,78.42
2022-08-18T22:48:16.494Z,78.78
2022-08-18T22:53:19.421Z,78.74
2022-08-18T22:58:28.245Z,79.18
2022-08-18T23:03:31.365Z,80.06
2022-08-18T23:08:55.188Z,80.18
2022-08-18T23:14:00.954Z,80.32
2022-08-18T23:19:03.690Z,80.63
2022-08-18T23:24:07.149Z,80.94
2022-08-18T23:29:11.663Z,81.00
2022-08-18T23:34:17.315Z,81.60
2022-08-18T23:39:20.215Z,81.83
2022-08-18T23:44:27.810Z,81.92
2022-08-18T23:49:31.595Z,81.83
2022-08-18T23:54:36.030Z,82.22
2022-08-18T23:59:40.069Z,81.89
